createdAt,value
2023-05-23T00:01:49.007Z,22.74
2023-05-23T00:04:22.304Z,22.75
2023-05-23T00:06:56.390Z,22.70
2023-05-23T00:09:27.772Z,22.67
2023-05-23T00:11:56.155Z,22.72
2023-05-23T00:14:24.271Z,22.71
2023-05-23T00:16:52.254Z,22.75
2023-05-23T00:19:23.591Z,22.75
2023-05-23T00:22:17.950Z,22.73
2023-05-23T00:24:45.820Z,22.72
2023-05-23T00:27:18.202Z,22.67
2023-05-23T00:29:45.998Z,22.68
2023-05-23T00:32:15.190Z,22.64
2023-05-23T00:34:56.171Z,22.65
2023-05-23T00:37:26.345Z,22.65
2023-05-23T00:39:56.316Z,22.65
2023-05-23T00:42:23.741Z,22.63
2023-05-23T00:44:51.191Z,22.61
2023-05-23T00:47:19.202Z,22.64
2023-05-23T00:49:46.789Z,22.62
2023-05-23T00:52:23.217Z,22.58
2023-05-23T00:54:53.900Z,22.56
2023-05-23T00:57:21.289Z,22.52
2023-05-23T01:03:05.748Z,22.47
2023-05-23T01:05:33.090Z,22.45
2023-05-23T01:08:03.421Z,22.43
2023-05-23T01:10:31.545Z,22.36
2023-05-23T01:12:58.522Z,22.32
2023-05-23T01:15:51.653Z,22.18
2023-05-23T01:18:48.798Z,22.25
2023-05-23T01:21:22.571Z,22.22
2023-05-23T01:24:03.940Z,22.16
2023-05-23T01:26:43.191Z,22.16
2023-05-23T01:29:35.261Z,22.10
2023-05-23T01:32:07.788Z,22.15
2023-05-23T01:34:37.322Z,22.16
2023-05-23T01:37:09.712Z,22.10
2023-05-23T01:39:42.286Z,22.10
2023-05-23T01:42:09.877Z,22.10
2023-05-23T01:44:38.508Z,22.03
2023-05-23T01:47:08.635Z,22.07
2023-05-23T01:49:38.078Z,22.02
2023-05-23T01:52:05.913Z,22.02
2023-05-23T01:54:38.446Z,21.97
2023-05-23T01:57:07.064Z,21.93
2023-05-23T01:59:34.463Z,21.87
2023-05-23T02:02:02.033Z,21.81
2023-05-23T02:04:29.182Z,21.79
2023-05-23T02:06:56.362Z,21.83
2023-05-23T02:09:25.992Z,21.75
2023-05-23T02:11:55.957Z,21.76
2023-05-23T02:14:29.551Z,21.75
2023-05-23T02:16:56.556Z,21.66
2023-05-23T02:19:27.669Z,21.65
2023-05-23T02:21:54.965Z,21.64
2023-05-23T02:24:22.060Z,21.63
2023-05-23T02:26:49.184Z,21.55
2023-05-23T02:29:17.261Z,21.51
2023-05-23T02:31:44.839Z,21.54
2023-05-23T02:34:12.039Z,21.46
2023-05-23T02:36:39.825Z,21.50
2023-05-23T02:39:07.086Z,21.52
2023-05-23T02:41:34.450Z,21.51
2023-05-23T02:44:01.604Z,21.49
2023-05-23T02:46:28.857Z,21.51
2023-05-23T02:48:58.408Z,21.53
2023-05-23T02:51:25.642Z,21.50
2023-05-23T02:53:55.463Z,21.59
2023-05-23T02:56:23.689Z,21.56
2023-05-23T02:58:53.592Z,21.50
2023-05-23T03:01:23.696Z,21.49
2023-05-23T03:03:51.707Z,21.49
2023-05-23T03:06:19.296Z,21.46
2023-05-23T03:08:46.914Z,21.40
2023-05-23T03:11:14.105Z,21.45
2023-05-23T03:13:44.278Z,21.47
2023-05-23T03:16:13.317Z,21.46
2023-05-23T03:18:44.243Z,21.44
2023-05-23T03:21:11.397Z,21.33
2023-05-23T03:23:38.590Z,21.43
2023-05-23T03:26:06.897Z,21.39
2023-05-23T03:28:35.509Z,21.38
2023-05-23T03:31:02.655Z,21.41
2023-05-23T03:33:33.134Z,21.33
2023-05-23T03:36:03.003Z,21.32
2023-05-23T03:38:33.525Z,21.29
2023-05-23T03:41:03.816Z,21.16
2023-05-23T03:43:31.596Z,21.28
2023-05-23T03:46:02.399Z,21.16
2023-05-23T03:48:36.030Z,21.15
2023-05-23T03:51:06.695Z,21.11
2023-05-23T03:53:37.028Z,21.10
2023-05-23T03:56:05.100Z,21.10
2023-05-23T03:58:35.118Z,21.01
2023-05-23T04:01:10.322Z,21.01
2023-05-23T04:03:40.124Z,20.91
2023-05-23T04:06:09.097Z,21.00
2023-05-23T04:08:42.275Z,20.99
2023-05-23T04:11:09.721Z,20.96
2023-05-23T04:13:38.649Z,20.96
2023-05-23T04:16:09.284Z,20.95
2023-05-23T04:18:39.439Z,20.86
2023-05-23T04:21:08.779Z,20.86
2023-05-23T04:23:40.833Z,20.83
2023-05-23T04:26:10.772Z,20.83
2023-05-23T04:28:49.165Z,20.71
2023-05-23T04:31:16.470Z,20.83
2023-05-23T04:33:43.842Z,20.85
2023-05-23T04:36:11.490Z,20.82
2023-05-23T04:38:42.209Z,20.84
2023-05-23T04:41:12.794Z,20.79
2023-05-23T04:43:54.780Z,20.85
2023-05-23T04:46:34.539Z,20.73
2023-05-23T04:49:15.227Z,20.68
2023-05-23T04:51:43.136Z,20.70
2023-05-23T04:54:21.958Z,20.61
2023-05-23T04:56:49.234Z,20.70
2023-05-23T04:59:19.146Z,20.62
2023-05-23T05:01:46.702Z,20.72
2023-05-23T05:04:17.075Z,20.69
2023-05-23T05:06:45.244Z,20.74
2023-05-23T05:09:15.064Z,20.70
2023-05-23T05:11:43.988Z,20.75
2023-05-23T05:14:11.205Z,20.90
2023-05-23T05:16:38.485Z,20.91
2023-05-23T05:19:06.403Z,20.76
2023-05-23T05:21:33.548Z,20.92
2023-05-23T05:24:01.121Z,20.92
2023-05-23T05:26:28.684Z,20.91
2023-05-23T05:28:57.187Z,20.83
2023-05-23T05:31:24.468Z,20.94
2023-05-23T05:33:51.723Z,20.91
2023-05-23T05:36:21.790Z,20.90
2023-05-23T05:38:50.132Z,21.03
2023-05-23T05:41:20.096Z,21.05
2023-05-23T05:43:50.253Z,21.05
2023-05-23T05:46:18.303Z,21.12
2023-05-23T05:48:46.836Z,21.16
2023-05-23T05:51:14.843Z,21.20
2023-05-23T05:53:43.194Z,21.22
2023-05-23T05:56:13.046Z,21.30
2023-05-23T05:58:40.222Z,21.37
2023-05-23T06:01:09.979Z,21.45
2023-05-23T06:03:38.065Z,21.51
2023-05-23T06:06:05.494Z,21.57
2023-05-23T06:08:35.385Z,21.60
2023-05-23T06:11:02.857Z,21.68
2023-05-23T06:13:32.638Z,21.76
2023-05-23T06:15:59.933Z,21.79
2023-05-23T06:18:27.167Z,21.92
2023-05-23T06:20:56.745Z,21.95
2023-05-23T06:23:23.958Z,21.98
2023-05-23T06:25:51.521Z,22.03
2023-05-23T06:28:18.711Z,22.05
2023-05-23T06:30:48.825Z,22.13
2023-05-23T06:33:16.862Z,22.14
2023-05-23T06:35:44.038Z,22.15
2023-05-23T06:38:11.258Z,22.21
2023-05-23T06:40:38.561Z,22.21
2023-05-23T06:43:05.817Z,22.33
2023-05-23T06:45:47.912Z,22.37
2023-05-23T06:48:16.928Z,22.40
2023-05-23T06:50:45.625Z,22.33
2023-05-23T06:53:13.443Z,22.43
2023-05-23T06:55:42.272Z,22.40
2023-05-23T06:58:12.496Z,22.42
2023-05-23T07:00:42.606Z,22.41
2023-05-23T07:03:16.913Z,22.45
2023-05-23T07:05:44.985Z,22.41
2023-05-23T07:08:13.225Z,22.43
2023-05-23T07:10:47.339Z,22.40
2023-05-23T07:13:28.444Z,22.44
2023-05-23T07:15:56.620Z,22.39
2023-05-23T07:18:24.462Z,22.46
2023-05-23T07:20:52.352Z,22.47
2023-05-23T07:23:20.858Z,22.48
2023-05-23T07:26:01.102Z,22.44
2023-05-23T07:28:43.221Z,22.46
2023-05-23T07:31:10.531Z,22.46
2023-05-23T07:33:39.374Z,22.45
2023-05-23T07:36:09.424Z,22.42
2023-05-23T07:38:39.619Z,22.42
2023-05-23T07:41:12.061Z,22.29
2023-05-23T07:43:41.259Z,22.30
2023-05-23T07:46:09.249Z,22.25
2023-05-23T07:48:39.607Z,22.28
2023-05-23T07:51:07.315Z,22.31
2023-05-23T07:53:35.299Z,22.30
2023-05-23T07:56:06.233Z,22.33
2023-05-23T07:58:37.711Z,22.36
2023-05-23T08:01:06.747Z,22.37
2023-05-23T08:03:52.323Z,22.41
2023-05-23T08:06:27.700Z,22.52
2023-05-23T08:08:58.455Z,22.60
2023-05-23T08:11:27.678Z,22.75
2023-05-23T08:13:54.971Z,22.83
2023-05-23T08:16:51.380Z,22.96
2023-05-23T08:19:22.575Z,23.06
2023-05-23T08:21:51.488Z,23.19
2023-05-23T08:24:19.453Z,23.25
2023-05-23T08:26:47.221Z,23.34
2023-05-23T08:31:43.682Z,23.44
2023-05-23T08:34:12.700Z,23.57
2023-05-23T08:36:40.714Z,23.47
2023-05-23T08:39:13.951Z,23.62
2023-05-23T08:42:02.959Z,23.73
2023-05-23T08:44:30.858Z,23.98
2023-05-23T08:47:08.014Z,23.97
2023-05-23T08:49:48.746Z,24.05
2023-05-23T08:52:21.146Z,24.14
2023-05-23T08:54:51.161Z,24.24
2023-05-23T08:57:18.598Z,24.28
2023-05-23T08:59:52.846Z,24.34
2023-05-23T09:02:21.474Z,24.49
2023-05-23T09:04:50.310Z,24.62
2023-05-23T09:07:22.899Z,24.74
2023-05-23T09:09:51.874Z,25.02
2023-05-23T09:12:27.932Z,24.87
2023-05-23T09:14:55.606Z,25.07
2023-05-23T09:17:27.628Z,25.14
2023-05-23T09:19:55.868Z,25.39
2023-05-23T09:22:38.805Z,25.40
2023-05-23T09:25:17.712Z,25.64
2023-05-23T09:27:48.356Z,25.69
2023-05-23T09:30:18.040Z,25.96
2023-05-23T09:33:02.855Z,26.03
2023-05-23T09:35:33.213Z,26.79
2023-05-23T09:38:00.518Z,27.20
2023-05-23T09:40:33.358Z,27.17
2023-05-23T09:43:07.883Z,27.03
2023-05-23T09:45:35.089Z,26.77
2023-05-23T09:48:02.835Z,26.68
2023-05-23T09:50:34.065Z,26.56
2023-05-23T09:53:02.952Z,26.95
2023-05-23T09:55:31.241Z,27.18
2023-05-23T09:58:00.114Z,27.26
2023-05-23T10:00:31.481Z,27.60
2023-05-23T10:03:14.622Z,27.35
2023-05-23T10:05:46.554Z,27.45
2023-05-23T10:08:27.373Z,27.75
2023-05-23T10:10:54.850Z,28.11
2023-05-23T10:13:26.411Z,28.22
2023-05-23T10:16:08.440Z,28.47
2023-05-23T10:18:43.493Z,28.44
2023-05-23T10:21:15.923Z,28.53
2023-05-23T10:23:47.597Z,28.84
2023-05-23T10:26:15.517Z,28.57
2023-05-23T10:28:42.951Z,28.90
2023-05-23T10:31:11.963Z,29.02
2023-05-23T10:33:48.326Z,29.14
2023-05-23T10:36:22.731Z,29.02
2023-05-23T10:39:24.731Z,29.27
2023-05-23T10:41:55.673Z,29.60
2023-05-23T10:44:32.578Z,29.20
2023-05-23T10:47:04.482Z,29.42
2023-05-23T10:49:42.386Z,29.61
2023-05-23T10:52:12.119Z,29.84
2023-05-23T10:54:46.703Z,29.96
2023-05-23T10:57:18.518Z,29.83
2023-05-23T10:59:47.347Z,30.16
2023-05-23T11:02:16.690Z,30.12
2023-05-23T11:04:44.737Z,30.43
2023-05-23T11:07:33.532Z,30.57
2023-05-23T11:10:14.450Z,30.20
2023-05-23T11:12:43.232Z,30.41
2023-05-23T11:15:22.475Z,30.51
2023-05-23T11:17:55.905Z,30.67
2023-05-23T11:20:28.890Z,29.68
2023-05-23T11:23:04.245Z,29.84
2023-05-23T11:25:42.329Z,29.96
2023-05-23T11:28:13.347Z,30.06
2023-05-23T11:30:41.563Z,30.00
2023-05-23T11:33:17.373Z,29.58
2023-05-23T11:35:57.187Z,29.91
2023-05-23T11:38:28.178Z,30.26
2023-05-23T11:40:55.384Z,30.16
2023-05-23T11:43:22.396Z,30.32
2023-05-23T11:45:50.936Z,29.76
2023-05-23T11:48:18.215Z,30.33
2023-05-23T11:50:52.157Z,30.08
2023-05-23T11:53:22.093Z,30.04
2023-05-23T11:55:58.650Z,29.97
2023-05-23T11:58:35.477Z,29.90
2023-05-23T12:01:10.272Z,30.23
2023-05-23T12:04:04.402Z,30.22
2023-05-23T12:06:35.688Z,30.26
2023-05-23T12:09:03.188Z,30.01
2023-05-23T12:11:36.750Z,29.95
2023-05-23T12:14:09.286Z,30.19
2023-05-23T12:16:37.214Z,29.94
2023-05-23T12:19:07.138Z,30.23
2023-05-23T12:21:50.038Z,30.17
2023-05-23T12:24:19.516Z,30.30
2023-05-23T12:27:01.738Z,29.98
2023-05-23T12:29:35.217Z,28.93
2023-05-23T12:32:07.814Z,29.46
2023-05-23T12:34:34.971Z,29.76
2023-05-23T12:39:37.016Z,29.93
2023-05-23T12:42:09.206Z,29.06
2023-05-23T12:44:36.970Z,29.68
2023-05-23T12:47:05.455Z,30.04
2023-05-23T12:49:34.053Z,29.48
2023-05-23T12:52:05.973Z,29.69
2023-05-23T12:54:34.132Z,29.32
2023-05-23T12:57:01.498Z,29.27
2023-05-23T12:59:28.732Z,29.05
2023-05-23T13:01:56.068Z,29.22
2023-05-23T13:04:24.705Z,29.31
2023-05-23T13:06:53.145Z,29.69
2023-05-23T13:09:20.421Z,29.38
2023-05-23T13:11:50.623Z,29.74
2023-05-23T13:14:17.866Z,30.11
2023-05-23T13:16:45.814Z,30.08
2023-05-23T13:19:13.180Z,30.26
2023-05-23T13:21:44.072Z,29.89
2023-05-23T13:24:11.265Z,30.05
2023-05-23T13:26:42.402Z,29.85
2023-05-23T13:29:09.489Z,30.30
2023-05-23T13:31:36.625Z,30.05
2023-05-23T13:34:03.844Z,30.04
2023-05-23T13:36:33.702Z,29.98
2023-05-23T13:39:01.359Z,30.07
2023-05-23T13:41:28.549Z,29.65
2023-05-23T13:43:57.233Z,29.74
2023-05-23T13:46:24.508Z,29.69
2023-05-23T13:48:52.118Z,29.99
2023-05-23T13:51:19.469Z,29.96
2023-05-23T13:53:50.254Z,30.07
2023-05-23T13:56:19.038Z,29.91
2023-05-23T13:58:47.041Z,29.86
2023-05-23T14:01:17.292Z,29.65
2023-05-23T14:03:44.482Z,29.45
2023-05-23T14:06:11.678Z,29.37
2023-05-23T14:08:38.920Z,29.49
2023-05-23T14:11:06.097Z,28.99
2023-05-23T14:13:36.466Z,29.37
2023-05-23T14:16:06.383Z,29.15
2023-05-23T14:18:36.331Z,29.42
2023-05-23T14:21:03.736Z,29.32
2023-05-23T14:23:31.251Z,29.59
2023-05-23T14:26:01.270Z,29.41
2023-05-23T14:28:29.659Z,29.32
2023-05-23T14:30:57.113Z,29.45
2023-05-23T14:33:25.269Z,29.60
2023-05-23T14:35:52.693Z,29.42
2023-05-23T14:38:20.413Z,29.55
2023-05-23T14:40:52.172Z,29.64
2023-05-23T14:43:22.283Z,29.08
2023-05-23T14:45:49.707Z,29.25
2023-05-23T14:48:17.938Z,28.42
2023-05-23T14:50:50.914Z,29.08
2023-05-23T14:53:25.010Z,28.47
2023-05-23T14:55:58.109Z,28.95
2023-05-23T14:58:28.860Z,28.77
2023-05-23T15:00:57.546Z,28.85
2023-05-23T15:03:24.824Z,28.88
2023-05-23T15:05:52.073Z,28.21
2023-05-23T15:08:21.846Z,28.61
2023-05-23T15:10:51.401Z,28.69
2023-05-23T15:13:18.614Z,28.60
2023-05-23T15:15:45.844Z,28.62
2023-05-23T15:18:24.569Z,28.52
2023-05-23T15:20:59.503Z,28.49
2023-05-23T15:23:27.528Z,28.23
2023-05-23T15:25:54.923Z,28.35
2023-05-23T15:28:22.296Z,28.29
2023-05-23T15:30:49.812Z,27.85
2023-05-23T15:33:17.422Z,27.36
2023-05-23T15:35:44.771Z,27.84
2023-05-23T15:38:13.949Z,26.84
2023-05-23T15:40:41.890Z,26.91
2023-05-23T15:43:09.322Z,27.03
2023-05-23T15:45:36.540Z,26.89
2023-05-23T15:48:03.763Z,26.99
2023-05-23T15:50:30.861Z,26.64
2023-05-23T15:52:58.091Z,26.73
2023-05-23T15:55:25.168Z,26.53
2023-05-23T15:57:52.203Z,26.45
2023-05-23T16:00:19.901Z,26.76
2023-05-23T16:02:47.041Z,26.51
2023-05-23T16:05:14.374Z,26.35
2023-05-23T16:07:41.553Z,25.93
2023-05-23T16:10:08.993Z,26.27
2023-05-23T16:12:37.554Z,26.33
2023-05-23T16:15:05.214Z,26.17
2023-05-23T16:17:34.128Z,26.08
2023-05-23T16:20:04.518Z,26.26
2023-05-23T16:22:31.876Z,26.37
2023-05-23T16:24:59.061Z,26.45
2023-05-23T16:27:26.298Z,26.54
2023-05-23T16:29:53.708Z,26.57
2023-05-23T16:32:20.869Z,26.54
2023-05-23T16:34:52.834Z,26.61
2023-05-23T16:37:21.647Z,26.55
2023-05-23T16:39:48.857Z,26.48
2023-05-23T16:42:16.531Z,26.62
2023-05-23T16:44:44.141Z,26.72
2023-05-23T16:47:11.613Z,26.55
2023-05-23T16:49:38.782Z,26.46
2023-05-23T16:52:08.286Z,26.35
2023-05-23T16:54:35.437Z,26.30
2023-05-23T16:57:06.561Z,26.41
2023-05-23T16:59:34.011Z,26.50
2023-05-23T17:02:01.123Z,26.59
2023-05-23T17:04:28.337Z,26.49
2023-05-23T17:06:55.840Z,26.54
2023-05-23T17:09:23.254Z,26.28
2023-05-23T17:11:51.234Z,26.39
2023-05-23T17:14:18.480Z,26.39
2023-05-23T17:16:46.335Z,26.38
2023-05-23T17:19:13.613Z,26.48
2023-05-23T17:21:41.364Z,26.19
2023-05-23T17:24:08.601Z,26.39
2023-05-23T17:26:35.744Z,26.42
2023-05-23T17:29:03.019Z,26.51
2023-05-23T17:31:30.990Z,26.47
2023-05-23T17:34:01.342Z,26.41
2023-05-23T17:36:28.669Z,26.28
2023-05-23T17:38:56.504Z,26.08
2023-05-23T17:41:23.761Z,26.22
2023-05-23T17:43:50.897Z,26.10
2023-05-23T17:46:18.235Z,26.13
2023-05-23T17:48:47.921Z,25.96
2023-05-23T17:51:16.268Z,25.90
2023-05-23T17:53:43.539Z,25.69
2023-05-23T17:56:10.965Z,25.90
2023-05-23T17:58:38.837Z,25.95
2023-05-23T18:01:08.331Z,26.01
2023-05-23T18:03:35.376Z,26.01
2023-05-23T18:06:02.652Z,25.94
2023-05-23T18:08:29.997Z,25.74
2023-05-23T18:10:59.785Z,25.90
2023-05-23T18:13:26.945Z,25.78
2023-05-23T18:15:54.060Z,25.92
2023-05-23T18:18:21.294Z,25.94
2023-05-23T18:20:48.455Z,25.86
2023-05-23T18:23:15.944Z,25.86
2023-05-23T18:25:43.314Z,25.86
2023-05-23T18:28:10.690Z,25.87
2023-05-23T18:30:37.835Z,25.90
2023-05-23T18:33:05.165Z,25.92
2023-05-23T18:35:34.530Z,25.84
2023-05-23T18:38:03.969Z,25.87
2023-05-23T18:40:32.348Z,25.82
2023-05-23T18:42:59.505Z,25.78
2023-05-23T18:45:29.121Z,25.74
2023-05-23T18:47:56.538Z,25.60
2023-05-23T18:50:23.889Z,25.67
2023-05-23T18:52:51.109Z,25.67
2023-05-23T18:55:20.079Z,25.50
2023-05-23T18:57:47.211Z,25.54
2023-05-23T19:00:14.850Z,25.51
2023-05-23T19:02:44.603Z,25.57
2023-05-23T19:05:12.846Z,25.47
2023-05-23T19:07:40.859Z,25.43
2023-05-23T19:10:09.426Z,25.41
2023-05-23T19:12:38.955Z,25.35
2023-05-23T19:15:11.006Z,25.39
2023-05-23T19:17:41.824Z,25.33
2023-05-23T19:20:09.778Z,25.30
2023-05-23T19:22:50.350Z,25.24
2023-05-23T19:25:19.127Z,25.10
2023-05-23T19:27:46.428Z,25.16
2023-05-23T19:30:13.798Z,25.14
2023-05-23T19:32:40.977Z,25.13
2023-05-23T19:35:12.000Z,25.16
2023-05-23T19:37:44.508Z,25.08
2023-05-23T19:40:12.343Z,25.00
2023-05-23T19:42:40.176Z,25.06
2023-05-23T19:45:08.983Z,25.07
2023-05-23T19:47:36.372Z,25.08
2023-05-23T19:50:05.107Z,25.04
2023-05-23T19:52:32.609Z,25.02
2023-05-23T19:55:01.255Z,25.01
2023-05-23T19:57:30.472Z,24.98
2023-05-23T19:59:57.724Z,25.00
2023-05-23T20:02:26.531Z,24.84
2023-05-23T20:04:53.996Z,24.79
2023-05-23T20:07:21.438Z,24.81
2023-05-23T20:09:48.970Z,24.88
2023-05-23T20:12:16.192Z,24.73
2023-05-23T20:14:43.287Z,24.84
2023-05-23T20:17:16.073Z,24.81
2023-05-23T20:19:43.244Z,24.77
2023-05-23T20:22:10.554Z,24.77
2023-05-23T20:24:40.881Z,24.69
2023-05-23T20:27:08.461Z,24.74
2023-05-23T20:29:35.654Z,24.72
2023-05-23T20:32:17.654Z,24.76
2023-05-23T20:34:54.016Z,24.74
2023-05-23T20:37:22.027Z,24.70
2023-05-23T20:40:00.747Z,24.63
2023-05-23T20:42:39.631Z,24.63
2023-05-23T20:45:15.001Z,24.66
2023-05-23T20:47:45.974Z,24.66
2023-05-23T20:50:22.170Z,24.64
2023-05-23T20:52:52.225Z,24.67
2023-05-23T20:55:24.358Z,24.67
2023-05-23T20:57:55.037Z,24.65
2023-05-23T21:00:35.154Z,24.63
2023-05-23T21:03:05.981Z,24.64
2023-05-23T21:05:34.179Z,24.63
2023-05-23T21:08:01.782Z,24.58
2023-05-23T21:10:39.927Z,24.57
2023-05-23T21:13:07.271Z,24.56
2023-05-23T21:15:37.371Z,24.56
2023-05-23T21:18:12.282Z,24.54
2023-05-23T21:20:50.815Z,24.46
2023-05-23T21:23:23.330Z,24.50
2023-05-23T21:25:55.981Z,24.49
2023-05-23T21:28:32.910Z,24.52
2023-05-23T21:31:04.175Z,24.50
2023-05-23T21:33:38.824Z,24.47
2023-05-23T21:36:06.409Z,24.49
2023-05-23T21:38:37.580Z,24.47
2023-05-23T21:41:10.826Z,24.41
2023-05-23T21:43:43.438Z,24.39
2023-05-23T21:46:21.638Z,24.40
2023-05-23T21:48:54.635Z,24.42
2023-05-23T21:51:21.866Z,24.38
2023-05-23T21:53:49.150Z,24.36
2023-05-23T21:56:16.456Z,24.38
2023-05-23T21:58:43.721Z,24.27
2023-05-23T22:01:10.864Z,24.33
2023-05-23T22:03:42.240Z,24.32
2023-05-23T22:06:15.539Z,24.35
2023-05-23T22:08:46.397Z,24.34
2023-05-23T22:11:14.121Z,24.31
2023-05-23T22:13:41.244Z,24.26
2023-05-23T22:16:08.687Z,24.28
2023-05-23T22:18:51.097Z,24.25
2023-05-23T22:21:21.717Z,24.18
2023-05-23T22:23:49.030Z,24.23
2023-05-23T22:26:16.076Z,24.21
2023-05-23T22:28:45.703Z,24.24
2023-05-23T22:31:16.073Z,24.22
2023-05-23T22:33:43.817Z,24.19
2023-05-23T22:36:11.459Z,24.21
2023-05-23T22:38:38.878Z,24.19
2023-05-23T22:41:08.473Z,24.15
2023-05-23T22:43:35.701Z,24.11
2023-05-23T22:46:02.888Z,24.13
2023-05-23T22:48:34.153Z,24.14
2023-05-23T22:51:02.662Z,24.04
2023-05-23T22:53:30.409Z,23.98
2023-05-23T22:56:00.310Z,24.00
2023-05-23T22:58:27.768Z,24.00
2023-05-23T23:00:55.124Z,24.01
2023-05-23T23:03:22.591Z,23.95
2023-05-23T23:05:49.882Z,23.96
2023-05-23T23:08:19.612Z,23.95
2023-05-23T23:10:47.048Z,23.91
2023-05-23T23:13:14.280Z,23.96
2023-05-23T23:15:45.206Z,23.97
2023-05-23T23:18:15.301Z,23.99
2023-05-23T23:20:44.619Z,23.95
2023-05-23T23:23:12.077Z,23.92
2023-05-23T23:25:40.500Z,23.93
2023-05-23T23:28:08.633Z,23.90
2023-05-23T23:30:35.893Z,23.92
2023-05-23T23:33:03.027Z,23.90
2023-05-23T23:35:30.272Z,23.90
2023-05-23T23:37:57.311Z,23.86
2023-05-23T23:40:24.475Z,23.84
2023-05-23T23:42:57.588Z,23.83
2023-05-23T23:45:24.742Z,23.80
2023-05-23T23:47:51.850Z,23.79
2023-05-23T23:50:24.542Z,23.80
2023-05-23T23:52:51.690Z,23.79
2023-05-23T23:55:19.228Z,23.75
2023-05-23T23:57:46.671Z,23.76
